Time;durP1;ratioP1;P1;durP2;ratioP2;P2;SDS_P1;SDS_P2;PMS_P1;PMS_P2;Temp;Humidity;BMP_temperature;BMP_pressure;BME280_temperature;BME280_humidity;BME280_pressure;Samples;Min_cycle;Max_cycle;Signal;HPM_P1;HPM_P2
2023/01/19 00:01:53;;;;;;;25.90;13.77;;;;;;;;;;10406161;28;20045;-76
2023/01/19 00:06:55;;;;;;;24.17;12.48;;;;;;;;;;10406109;28;20103;-76
2023/01/19 00:12:02;;;;;;;21.70;12.47;;;;;;;;;;10424727;28;20394;-75
2023/01/19 00:17:04;;;;;;;21.63;12.40;;;;;;;;;;10407045;28;20049;-76
2023/01/19 00:22:05;;;;;;;23.42;13.15;;;;;;;;;;10401389;28;20054;-76
2023/01/19 00:27:06;;;;;;;25.10;13.48;;;;;;;;;;10404320;28;20502;-76
2023/01/19 00:32:06;;;;;;;23.30;13.55;;;;;;;;;;10409247;28;20037;-75
2023/01/19 00:37:10;;;;;;;22.30;13.38;;;;;;;;;;10390583;28;20077;-76
2023/01/19 00:47:32;;;;;;;24.30;14.93;;;;;;;;;;10396586;28;20072;-76
2023/01/19 00:52:32;;;;;;;28.42;14.15;;;;;;;;;;10419222;28;20054;-77
2023/01/19 00:57:34;;;;;;;27.10;14.32;;;;;;;;;;10407224;28;20045;-76
2023/01/19 01:02:38;;;;;;;25.13;13.90;;;;;;;;;;10404494;28;20075;-75
2023/01/19 01:07:41;;;;;;;22.63;13.50;;;;;;;;;;10400900;28;20133;-74
2023/01/19 01:12:42;;;;;;;23.13;13.80;;;;;;;;;;10399286;28;20049;-75
2023/01/19 01:17:48;;;;;;;24.55;13.25;;;;;;;;;;10415580;28;20056;-75
2023/01/19 01:22:50;;;;;;;29.35;14.23;;;;;;;;;;10427238;28;20044;-76
2023/01/19 01:27:51;;;;;;;25.20;13.85;;;;;;;;;;10396964;28;20374;-74
2023/01/19 01:32:51;;;;;;;25.50;13.95;;;;;;;;;;10423460;28;20041;-75
2023/01/19 01:37:51;;;;;;;27.20;13.20;;;;;;;;;;10424781;28;20052;-76
2023/01/19 01:42:52;;;;;;;31.58;15.95;;;;;;;;;;10416158;28;20053;-76
2023/01/19 01:47:57;;;;;;;26.75;14.25;;;;;;;;;;10411950;28;20525;-78
2023/01/19 01:53:00;;;;;;;28.23;14.25;;;;;;;;;;10410574;28;20048;-77
2023/01/19 01:58:03;;;;;;;26.52;14.00;;;;;;;;;;10417861;28;20045;-77
2023/01/19 02:03:04;;;;;;;25.33;13.18;;;;;;;;;;10419948;28;20483;-75
2023/01/19 02:13:31;;;;;;;29.15;15.55;;;;;;;;;;10407830;28;20133;-76
2023/01/19 02:18:34;;;;;;;27.17;16.00;;;;;;;;;;10411000;28;20065;-77
2023/01/19 02:23:34;;;;;;;33.80;16.92;;;;;;;;;;10432938;28;20060;-77
2023/01/19 02:28:37;;;;;;;32.60;16.57;;;;;;;;;;10442230;28;20557;-75
2023/01/19 02:33:39;;;;;;;26.60;14.27;;;;;;;;;;10419237;28;21004;-76
2023/01/19 02:38:40;;;;;;;26.55;15.13;;;;;;;;;;10425352;28;20140;-75
2023/01/19 02:43:41;;;;;;;32.65;16.17;;;;;;;;;;10421574;28;20448;-74
2023/01/19 02:48:42;;;;;;;31.98;16.77;;;;;;;;;;10419227;28;20063;-75
2023/01/19 02:53:46;;;;;;;28.15;14.88;;;;;;;;;;10411456;28;20045;-77
2023/01/19 02:58:46;;;;;;;31.55;15.52;;;;;;;;;;10388459;28;20104;-75
2023/01/19 03:03:55;;;;;;;30.33;15.43;;;;;;;;;;10415261;28;20547;-74
2023/01/19 03:09:00;;;;;;;34.25;16.45;;;;;;;;;;10410259;28;20787;-75
2023/01/19 03:14:09;;;;;;;32.60;16.50;;;;;;;;;;10409031;28;20099;-76
2023/01/19 03:19:15;;;;;;;31.25;16.83;;;;;;;;;;10419891;28;20053;-76
2023/01/19 03:24:17;;;;;;;37.47;17.70;;;;;;;;;;10404900;28;20047;-74
2023/01/19 03:29:19;;;;;;;;;;;;;;;;;;10426557;28;20061;-77
2023/01/19 03:34:22;;;;;;;33.13;17.27;;;;;;;;;;10395674;28;20411;-73
2023/01/19 03:39:25;;;;;;;38.45;19.17;;;;;;;;;;10412160;28;20268;-77
2023/01/19 03:44:28;;;;;;;30.48;18.02;;;;;;;;;;10400898;28;20052;-78
2023/01/19 03:49:33;;;;;;;36.00;18.52;;;;;;;;;;10413629;28;20057;-77
2023/01/19 03:54:33;;;;;;;35.25;18.45;;;;;;;;;;10401237;28;20052;-76
2023/01/19 03:59:34;;;;;;;34.45;17.73;;;;;;;;;;10405387;28;20049;-78
2023/01/19 04:04:34;;;;;;;37.58;18.45;;;;;;;;;;10411273;28;20056;-77
2023/01/19 04:09:35;;;;;;;36.30;18.52;;;;;;;;;;10411804;28;20065;-77
2023/01/19 04:14:35;;;;;;;41.22;19.63;;;;;;;;;;10409067;28;20119;-78
2023/01/19 04:19:36;;;;;;;38.95;18.50;;;;;;;;;;10416174;28;20496;-76
2023/01/19 04:24:37;;;;;;;40.80;18.85;;;;;;;;;;10413692;28;20041;-79
2023/01/19 04:29:38;;;;;;;38.97;20.25;;;;;;;;;;10427231;28;20125;-75
2023/01/19 04:34:39;;;;;;;41.35;17.70;;;;;;;;;;10434794;28;20041;-74
2023/01/19 04:39:40;;;;;;;35.70;18.30;;;;;;;;;;10468163;28;20104;-74
2023/01/19 04:44:43;;;;;;;35.60;18.05;;;;;;;;;;10437702;28;20660;-76
2023/01/19 04:49:43;;;;;;;31.48;19.10;;;;;;;;;;10434883;28;20052;-76
2023/01/19 04:54:44;;;;;;;36.38;18.35;;;;;;;;;;10419191;28;20114;-75
2023/01/19 04:59:44;;;;;;;35.25;18.50;;;;;;;;;;10428234;28;20041;-75
2023/01/19 05:04:46;;;;;;;31.13;17.40;;;;;;;;;;10426782;28;20034;-75
2023/01/19 05:09:46;;;;;;;37.88;17.77;;;;;;;;;;10430873;28;20059;-74
2023/01/19 05:14:47;;;;;;;32.72;17.75;;;;;;;;;;10418246;28;20047;-76
2023/01/19 05:19:48;;;;;;;33.17;17.38;;;;;;;;;;10409749;28;20037;-77
2023/01/19 05:24:50;;;;;;;33.75;17.23;;;;;;;;;;10420600;28;20037;-74
2023/01/19 05:29:52;;;;;;;32.22;17.23;;;;;;;;;;10407769;28;20489;-74
2023/01/19 05:34:53;;;;;;;31.50;16.77;;;;;;;;;;10402718;28;20215;-75
2023/01/19 05:39:55;;;;;;;35.83;17.73;;;;;;;;;;10419603;28;20075;-78
2023/01/19 05:44:58;;;;;;;31.17;17.10;;;;;;;;;;10407253;28;20057;-75
2023/01/19 05:49:59;;;;;;;32.45;17.55;;;;;;;;;;10415691;28;20057;-74
2023/01/19 05:55:03;;;;;;;36.42;19.65;;;;;;;;;;10382466;28;20052;-74
2023/01/19 06:00:03;;;;;;;;;;;;;;;;;;10406144;28;20041;-74
2023/01/19 06:05:09;;;;;;;36.55;18.75;;;;;;;;;;10414259;28;19917;-74
2023/01/19 06:10:10;;;;;;;34.97;18.08;;;;;;;;;;10410808;28;20056;-75
2023/01/19 06:15:13;;;;;;;38.92;19.95;;;;;;;;;;10412807;28;20079;-76
2023/01/19 06:20:13;;;;;;;33.70;17.70;;;;;;;;;;10388783;28;20069;-76
2023/01/19 06:25:14;;;;;;;36.90;18.98;;;;;;;;;;10423199;28;20112;-76
2023/01/19 06:30:14;;;;;;;36.25;19.20;;;;;;;;;;10402269;28;20531;-75
2023/01/19 06:35:15;;;;;;;34.72;18.58;;;;;;;;;;10408268;28;20157;-75
2023/01/19 06:40:17;;;;;;;34.28;18.20;;;;;;;;;;10407924;28;20046;-75
2023/01/19 06:45:19;;;;;;;36.22;18.05;;;;;;;;;;10388158;28;20049;-75
2023/01/19 06:50:20;;;;;;;31.00;17.70;;;;;;;;;;10412893;28;20053;-73
2023/01/19 06:55:26;;;;;;;32.25;18.48;;;;;;;;;;10453008;28;20044;-75
2023/01/19 07:00:28;;;;;;;36.75;18.15;;;;;;;;;;10427466;28;20040;-78
2023/01/19 07:05:34;;;;;;;33.05;18.55;;;;;;;;;;10412104;28;20111;-78
2023/01/19 07:10:40;;;;;;;42.10;19.73;;;;;;;;;;10416935;28;20127;-76
2023/01/19 07:15:42;;;;;;;36.72;20.08;;;;;;;;;;10416749;28;20052;-75
2023/01/19 07:20:45;;;;;;;34.93;18.17;;;;;;;;;;10391298;28;20395;-76
2023/01/19 07:25:49;;;;;;;34.88;18.60;;;;;;;;;;10416935;28;20454;-77
2023/01/19 07:30:52;;;;;;;35.60;18.48;;;;;;;;;;10415307;28;20064;-76
2023/01/19 07:35:53;;;;;;;37.55;19.02;;;;;;;;;;10373183;28;20758;-75
2023/01/19 07:41:05;;;;;;;37.22;19.88;;;;;;;;;;10390305;28;20509;-76
2023/01/19 07:46:07;;;;;;;41.53;20.20;;;;;;;;;;10414149;28;20057;-75
2023/01/19 07:51:10;;;;;;;45.40;22.90;;;;;;;;;;10407669;28;20123;-78
2023/01/19 07:56:12;;;;;;;44.05;22.23;;;;;;;;;;10410638;28;20096;-77
2023/01/19 08:01:13;;;;;;;38.25;20.30;;;;;;;;;;10411462;28;20049;-76
2023/01/19 08:06:24;;;;;;;43.47;21.75;;;;;;;;;;10385862;28;20050;-76
2023/01/19 08:11:25;;;;;;;45.35;21.92;;;;;;;;;;10411208;28;20132;-75
2023/01/19 08:16:26;;;;;;;40.97;21.90;;;;;;;;;;10392621;28;20052;-77
2023/01/19 08:21:27;;;;;;;39.15;20.17;;;;;;;;;;10410490;28;20048;-76
2023/01/19 08:26:29;;;;;;;39.95;19.92;;;;;;;;;;10409994;28;20053;-77
2023/01/19 08:31:29;;;;;;;38.60;20.23;;;;;;;;;;10410966;28;20045;-76
2023/01/19 08:36:32;;;;;;;34.65;19.08;;;;;;;;;;10391829;28;20077;-77
2023/01/19 08:41:33;;;;;;;32.67;18.70;;;;;;;;;;10406636;28;20490;-76
2023/01/19 08:46:34;;;;;;;31.90;18.90;;;;;;;;;;10395842;28;20045;-76
2023/01/19 08:51:36;;;;;;;36.70;19.10;;;;;;;;;;10419430;28;20088;-75
2023/01/19 08:56:38;;;;;;;44.22;23.05;;;;;;;;;;10440904;28;20091;-77
2023/01/19 09:01:40;;;;;;;40.87;20.63;;;;;;;;;;10411148;28;20096;-77
2023/01/19 09:06:40;;;;;;;32.65;18.88;;;;;;;;;;10401390;28;20261;-78
2023/01/19 09:11:42;;;;;;;31.30;16.48;;;;;;;;;;10398904;28;20077;-76
2023/01/19 09:16:42;;;;;;;29.45;17.13;;;;;;;;;;10417610;28;20140;-77
2023/01/19 09:21:43;;;;;;;26.98;15.63;;;;;;;;;;10416019;28;20139;-76
2023/01/19 09:26:43;;;;;;;30.95;16.50;;;;;;;;;;10440517;28;20064;-81
2023/01/19 09:31:44;;;;;;;25.52;14.90;;;;;;;;;;10456879;28;20036;-84
2023/01/19 09:36:47;;;;;;;22.45;13.18;;;;;;;;;;10440155;28;20072;-84
2023/01/19 09:41:53;;;;;;;21.23;14.07;;;;;;;;;;10470794;28;20057;-84
2023/01/19 09:46:54;;;;;;;23.63;13.27;;;;;;;;;;10426540;28;20525;-76
2023/01/19 09:51:55;;;;;;;21.53;12.83;;;;;;;;;;10424751;28;20109;-76
2023/01/19 09:56:55;;;;;;;19.08;12.48;;;;;;;;;;10415163;28;20306;-75
2023/01/19 10:02:13;;;;;;;20.08;12.50;;;;;;;;;;10407673;28;20044;-76
2023/01/19 10:07:32;;;;;;;21.77;12.60;;;;;;;;;;10412488;28;20096;-75
2023/01/19 10:12:54;;;;;;;19.30;11.88;;;;;;;;;;10397326;28;20057;-75
2023/01/19 10:18:03;;;;;;;19.23;12.13;;;;;;;;;;10403604;28;20052;-74
2023/01/19 10:23:12;;;;;;;20.15;12.25;;;;;;;;;;10414337;28;20049;-76
2023/01/19 10:28:13;;;;;;;16.35;9.93;;;;;;;;;;10417239;28;20045;-76
2023/01/19 10:33:14;;;;;;;16.10;11.13;;;;;;;;;;10415938;28;20055;-75
2023/01/19 10:38:20;;;;;;;17.23;11.07;;;;;;;;;;10393639;28;20046;-75
2023/01/19 10:43:33;;;;;;;17.20;10.60;;;;;;;;;;10386895;28;20187;-75
2023/01/19 10:48:40;;;;;;;16.67;10.73;;;;;;;;;;10396858;28;20061;-76
2023/01/19 10:54:01;;;;;;;13.93;9.48;;;;;;;;;;10384145;28;20061;-76
2023/01/19 10:59:03;;;;;;;20.05;8.93;;;;;;;;;;10406390;28;20064;-74
2023/01/19 11:04:21;;;;;;;12.52;8.82;;;;;;;;;;10399668;28;20033;-76
2023/01/19 11:09:22;;;;;;;16.58;10.85;;;;;;;;;;10390968;28;20115;-77
2023/01/19 11:14:23;;;;;;;13.55;7.60;;;;;;;;;;10406099;28;20165;-75
2023/01/19 11:19:27;;;;;;;12.85;7.38;;;;;;;;;;10401832;28;20052;-76
2023/01/19 11:24:28;;;;;;;12.63;8.10;;;;;;;;;;10407054;28;20591;-77
2023/01/19 11:29:30;;;;;;;11.18;7.28;;;;;;;;;;10410408;28;20077;-76
2023/01/19 11:34:37;;;;;;;12.90;8.02;;;;;;;;;;10419233;28;20141;-77
2023/01/19 11:39:46;;;;;;;11.50;8.23;;;;;;;;;;10429550;28;20069;-76
2023/01/19 11:44:56;;;;;;;10.05;7.72;;;;;;;;;;10425407;28;20053;-75
2023/01/19 11:50:18;;;;;;;10.82;7.28;;;;;;;;;;10427182;28;20121;-77
2023/01/19 11:55:27;;;;;;;9.65;6.10;;;;;;;;;;10404442;28;20583;-76
2023/01/19 12:00:34;;;;;;;8.77;6.05;;;;;;;;;;10422183;28;20057;-76
2023/01/19 12:05:37;;;;;;;9.73;7.00;;;;;;;;;;10414895;28;20049;-77
2023/01/19 12:10:42;;;;;;;10.13;6.47;;;;;;;;;;10449143;28;20720;-79
2023/01/19 12:15:44;;;;;;;10.20;6.80;;;;;;;;;;10434340;28;20072;-78
2023/01/19 12:20:47;;;;;;;8.98;6.20;;;;;;;;;;10419549;28;20059;-76
2023/01/19 12:26:09;;;;;;;10.87;7.07;;;;;;;;;;10433546;28;20519;-76
2023/01/19 12:31:13;;;;;;;10.48;6.63;;;;;;;;;;10423062;28;20656;-77
2023/01/19 12:36:15;;;;;;;6.90;5.95;;;;;;;;;;10385094;28;20129;-77
2023/01/19 12:41:28;;;;;;;9.30;6.07;;;;;;;;;;10399252;28;20041;-76
2023/01/19 12:46:30;;;;;;;8.40;6.07;;;;;;;;;;10378109;28;20061;-76
2023/01/19 12:51:31;;;;;;;9.07;6.22;;;;;;;;;;10406982;28;20053;-77
2023/01/19 12:56:35;;;;;;;8.65;4.88;;;;;;;;;;10400246;28;20050;-76
2023/01/19 13:01:35;;;;;;;;;;;;;;;;;;10414908;28;20135;-75
2023/01/19 13:06:45;;;;;;;9.80;5.43;;;;;;;;;;10408311;28;19913;-77
2023/01/19 13:12:04;;;;;;;9.13;5.22;;;;;;;;;;10395093;28;20076;-78
2023/01/19 13:17:27;;;;;;;7.68;5.07;;;;;;;;;;10407265;28;20037;-76
2023/01/19 13:22:49;;;;;;;10.88;5.38;;;;;;;;;;10404451;28;20501;-78
2023/01/19 13:27:49;;;;;;;7.43;5.18;;;;;;;;;;10418367;28;20114;-75
2023/01/19 13:32:50;;;;;;;9.18;5.30;;;;;;;;;;10400022;28;20062;-75
2023/01/19 13:37:51;;;;;;;8.07;5.18;;;;;;;;;;10414165;28;20075;-76
2023/01/19 13:42:52;;;;;;;9.68;5.65;;;;;;;;;;10425842;28;20516;-77
2023/01/19 13:47:54;;;;;;;6.88;5.20;;;;;;;;;;10427613;28;20060;-76
2023/01/19 13:52:55;;;;;;;7.28;5.13;;;;;;;;;;10417729;28;20037;-77
2023/01/19 13:57:56;;;;;;;10.10;5.82;;;;;;;;;;10409175;28;20045;-74
2023/01/19 14:03:08;;;;;;;8.88;6.40;;;;;;;;;;10404056;28;20045;-79
2023/01/19 14:08:14;;;;;;;9.52;5.75;;;;;;;;;;10396081;28;20486;-76
2023/01/19 14:13:17;;;;;;;8.10;5.75;;;;;;;;;;10406566;28;20037;-81
2023/01/19 14:18:18;;;;;;;10.73;6.35;;;;;;;;;;10383215;28;20053;-78
2023/01/19 14:23:33;;;;;;;11.05;6.55;;;;;;;;;;10400142;28;20042;-77
2023/01/19 14:28:42;;;;;;;10.13;6.13;;;;;;;;;;10417015;28;20061;-77
2023/01/19 14:33:45;;;;;;;9.10;6.53;;;;;;;;;;10410714;28;20053;-76
2023/01/19 14:38:47;;;;;;;10.90;6.30;;;;;;;;;;10384572;28;20508;-79
2023/01/19 14:43:47;;;;;;;10.18;6.72;;;;;;;;;;10407859;28;20053;-76
2023/01/19 14:48:49;;;;;;;11.05;7.10;;;;;;;;;;10400116;28;20065;-76
2023/01/19 14:53:53;;;;;;;13.18;7.10;;;;;;;;;;10394275;28;20431;-76
2023/01/19 14:58:55;;;;;;;10.07;6.85;;;;;;;;;;10414018;28;20041;-76
2023/01/19 15:03:56;;;;;;;9.45;6.63;;;;;;;;;;10414845;28;20080;-76
2023/01/19 15:08:58;;;;;;;10.45;6.72;;;;;;;;;;10421180;28;20111;-75
2023/01/19 15:13:59;;;;;;;8.82;6.03;;;;;;;;;;10406094;28;20485;-74
2023/01/19 15:19:01;;;;;;;11.57;6.18;;;;;;;;;;10409885;28;20053;-77
2023/01/19 15:24:02;;;;;;;10.15;6.78;;;;;;;;;;10409266;28;20067;-77
2023/01/19 15:29:09;;;;;;;12.68;7.25;;;;;;;;;;10409328;28;20061;-78
2023/01/19 15:34:13;;;;;;;11.20;6.45;;;;;;;;;;10421852;28;20080;-78
2023/01/19 15:39:13;;;;;;;14.15;9.25;;;;;;;;;;10408434;28;20041;-77
2023/01/19 15:44:14;;;;;;;10.00;7.18;;;;;;;;;;10405897;28;20547;-76
2023/01/19 15:49:14;;;;;;;10.68;6.47;;;;;;;;;;10403951;28;20404;-75
2023/01/19 15:54:15;;;;;;;10.77;6.72;;;;;;;;;;10391710;28;20052;-77
2023/01/19 15:59:15;;;;;;;11.38;7.10;;;;;;;;;;10428849;28;20064;-76
2023/01/19 16:04:17;;;;;;;11.93;7.20;;;;;;;;;;10424125;28;20041;-75
2023/01/19 16:09:18;;;;;;;13.05;8.23;;;;;;;;;;10380217;28;20075;-75
2023/01/19 16:14:22;;;;;;;15.82;9.10;;;;;;;;;;10398157;28;20046;-77
2023/01/19 16:19:22;;;;;;;11.75;8.38;;;;;;;;;;10409848;28;20050;-76
2023/01/19 16:24:23;;;;;;;17.10;9.07;;;;;;;;;;10393650;28;20477;-76
2023/01/19 16:29:24;;;;;;;15.85;8.63;;;;;;;;;;10377658;28;20057;-76
2023/01/19 16:34:25;;;;;;;16.27;10.25;;;;;;;;;;10400393;28;20060;-77
2023/01/19 16:39:28;;;;;;;18.05;10.27;;;;;;;;;;10396071;28;20412;-78
2023/01/19 16:44:28;;;;;;;14.23;9.82;;;;;;;;;;10421126;28;20053;-80
2023/01/19 16:49:31;;;;;;;14.40;8.98;;;;;;;;;;10437148;28;20106;-76
2023/01/19 16:54:33;;;;;;;14.48;8.93;;;;;;;;;;10443874;28;20092;-77
2023/01/19 16:59:33;;;;;;;15.10;9.35;;;;;;;;;;10460084;28;20057;-76
2023/01/19 17:04:34;;;;;;;14.40;8.77;;;;;;;;;;10430458;28;20041;-77
2023/01/19 17:09:34;;;;;;;12.70;7.65;;;;;;;;;;10454422;28;20061;-78
2023/01/19 17:14:36;;;;;;;16.02;9.35;;;;;;;;;;10396136;28;20057;-76
2023/01/19 17:19:38;;;;;;;14.18;8.45;;;;;;;;;;10372749;28;20069;-80
2023/01/19 17:24:41;;;;;;;14.50;8.55;;;;;;;;;;10376039;28;20416;-81
2023/01/19 17:29:41;;;;;;;15.60;9.55;;;;;;;;;;10375005;28;20055;-78
2023/01/19 17:34:41;;;;;;;13.95;8.32;;;;;;;;;;10393633;28;20488;-77
2023/01/19 17:39:43;;;;;;;13.43;8.48;;;;;;;;;;10409295;28;20081;-78
2023/01/19 17:44:45;;;;;;;12.07;8.13;;;;;;;;;;10418659;28;20552;-77
2023/01/19 17:49:46;;;;;;;12.65;8.23;;;;;;;;;;10420364;28;20088;-77
2023/01/19 17:54:46;;;;;;;11.75;7.65;;;;;;;;;;10398857;28;20128;-79
2023/01/19 17:59:46;;;;;;;15.65;8.35;;;;;;;;;;10413450;28;20600;-77
2023/01/19 18:04:47;;;;;;;11.65;7.72;;;;;;;;;;10418610;28;20041;-77
2023/01/19 18:09:47;;;;;;;11.65;7.78;;;;;;;;;;10429005;28;20553;-79
2023/01/19 18:14:50;;;;;;;12.73;7.88;;;;;;;;;;10449164;28;20041;-78
2023/01/19 18:19:51;;;;;;;12.90;7.80;;;;;;;;;;10431387;28;20041;-78
2023/01/19 18:24:51;;;;;;;13.20;8.30;;;;;;;;;;10415353;28;20363;-81
2023/01/19 18:29:52;;;;;;;13.05;8.88;;;;;;;;;;10432908;28;20057;-76
2023/01/19 18:34:52;;;;;;;15.07;10.00;;;;;;;;;;10410618;28;20054;-81
2023/01/19 18:39:58;;;;;;;19.23;10.98;;;;;;;;;;10411547;28;20323;-79
2023/01/19 18:44:58;;;;;;;14.60;9.77;;;;;;;;;;10413780;28;20066;-79
2023/01/19 18:49:59;;;;;;;15.07;9.52;;;;;;;;;;10439254;28;20195;-76
2023/01/19 18:54:59;;;;;;;16.63;10.38;;;;;;;;;;10414504;28;20061;-78
2023/01/19 19:00:02;;;;;;;16.08;10.40;;;;;;;;;;10395929;28;20052;-81
2023/01/19 19:05:02;;;;;;;15.65;10.68;;;;;;;;;;10419080;28;20492;-77
2023/01/19 19:10:05;;;;;;;16.02;10.35;;;;;;;;;;10416139;28;20058;-78
2023/01/19 19:15:05;;;;;;;14.75;10.23;;;;;;;;;;10398793;28;20104;-77
2023/01/19 19:20:06;;;;;;;15.30;10.02;;;;;;;;;;10359294;28;20049;-78
2023/01/19 19:25:07;;;;;;;13.13;9.65;;;;;;;;;;10352657;28;20041;-80
2023/01/19 19:35:21;;;;;;;16.03;10.37;;;;;;;;;;10370692;28;20046;-78
2023/01/19 19:40:23;;;;;;;15.65;9.32;;;;;;;;;;10395000;28;20153;-80
2023/01/19 19:45:23;;;;;;;17.73;9.98;;;;;;;;;;10408302;28;20473;-79
2023/01/19 19:50:25;;;;;;;17.40;9.73;;;;;;;;;;10436860;28;20056;-80
2023/01/19 19:55:25;;;;;;;16.98;10.75;;;;;;;;;;10432572;28;20541;-80
2023/01/19 20:00:29;;;;;;;15.88;10.88;;;;;;;;;;10423457;28;20050;-82
2023/01/19 20:05:35;;;;;;;19.63;11.52;;;;;;;;;;10437955;28;20037;-80
2023/01/19 20:10:36;;;;;;;19.58;12.43;;;;;;;;;;10442996;28;20050;-80
2023/01/19 20:15:38;;;;;;;19.38;12.48;;;;;;;;;;10407869;28;20051;-79
2023/01/19 20:20:38;;;;;;;16.10;11.23;;;;;;;;;;10442946;28;20061;-81
2023/01/19 20:25:42;;;;;;;17.03;11.07;;;;;;;;;;10386337;28;20118;-81
2023/01/19 20:30:45;;;;;;;14.00;9.73;;;;;;;;;;10399011;28;20460;-81
2023/01/19 20:35:46;;;;;;;17.27;10.85;;;;;;;;;;10416719;28;20045;-81
2023/01/19 20:40:47;;;;;;;17.33;11.32;;;;;;;;;;10411730;28;20602;-81
2023/01/19 20:45:51;;;;;;;18.35;11.85;;;;;;;;;;10394861;28;20064;-74
2023/01/19 20:50:58;;;;;;;17.67;10.80;;;;;;;;;;10409594;28;20063;-77
2023/01/19 20:56:06;;;;;;;17.10;11.38;;;;;;;;;;10382703;28;20478;-76
2023/01/19 21:01:21;;;;;;;23.00;12.70;;;;;;;;;;10410100;28;20135;-78
2023/01/19 21:06:21;;;;;;;19.65;11.57;;;;;;;;;;10394779;28;20050;-75
2023/01/19 21:11:22;;;;;;;17.05;10.68;;;;;;;;;;10411825;28;20053;-76
2023/01/19 21:16:24;;;;;;;17.48;11.13;;;;;;;;;;10400371;28;20046;-76
2023/01/19 21:21:25;;;;;;;17.83;11.20;;;;;;;;;;10393193;28;20038;-77
2023/01/19 21:26:25;;;;;;;16.58;10.18;;;;;;;;;;10385063;28;20045;-75
2023/01/19 21:31:26;;;;;;;16.98;11.15;;;;;;;;;;10367070;28;20057;-77
2023/01/19 21:36:26;;;;;;;16.50;10.43;;;;;;;;;;10368464;28;20045;-79
2023/01/19 21:41:27;;;;;;;19.75;11.30;;;;;;;;;;10368851;28;20696;-78
2023/01/19 21:46:28;;;;;;;16.55;11.13;;;;;;;;;;10369355;28;20049;-79
2023/01/19 21:51:32;;;;;;;18.90;11.25;;;;;;;;;;10376219;28;20137;-77
2023/01/19 21:56:33;;;;;;;16.85;10.27;;;;;;;;;;10371972;28;20053;-76
2023/01/19 22:01:33;;;;;;;19.63;10.90;;;;;;;;;;10366499;28;20038;-77
2023/01/19 22:06:33;;;;;;;15.90;10.05;;;;;;;;;;10381997;28;20587;-79
2023/01/19 22:11:34;;;;;;;15.43;10.20;;;;;;;;;;10379877;28;20088;-75
2023/01/19 22:16:34;;;;;;;17.15;10.93;;;;;;;;;;10372484;28;20047;-75
2023/01/19 22:21:35;;;;;;;17.23;10.60;;;;;;;;;;10391547;28;20058;-75
2023/01/19 22:26:35;;;;;;;16.10;9.87;;;;;;;;;;10403551;28;20288;-75
2023/01/19 22:31:37;;;;;;;17.35;11.20;;;;;;;;;;10406713;28;20342;-76
2023/01/19 22:36:38;;;;;;;18.77;10.47;;;;;;;;;;10409461;28;20046;-76
2023/01/19 22:41:43;;;;;;;16.02;10.50;;;;;;;;;;10389193;28;20489;-76
2023/01/19 22:46:44;;;;;;;16.92;10.60;;;;;;;;;;10393240;28;20053;-75
2023/01/19 22:51:45;;;;;;;16.45;9.93;;;;;;;;;;10416860;28;20861;-75
2023/01/19 22:56:45;;;;;;;16.52;10.45;;;;;;;;;;10401756;28;20052;-75
2023/01/19 23:02:45;;;;;;;17.83;11.18;;;;;;;;;;10080380;27;15071790;-75
2023/01/19 23:07:46;;;;;;;17.35;10.85;;;;;;;;;;10659376;27;20049;-75
2023/01/19 23:12:47;;;;;;;17.05;11.07;;;;;;;;;;10670495;27;20027;-75
2023/01/19 23:17:51;;;;;;;15.15;9.77;;;;;;;;;;10650332;27;20386;-73
2023/01/19 23:22:52;;;;;;;18.35;12.27;;;;;;;;;;10643655;27;20469;-75
2023/01/19 23:27:52;;;;;;;17.97;11.73;;;;;;;;;;10647447;27;20043;-75
2023/01/19 23:32:52;;;;;;;18.17;11.25;;;;;;;;;;10639514;27;20371;-74
2023/01/19 23:37:53;;;;;;;17.07;11.47;;;;;;;;;;10665129;27;20042;-73
2023/01/19 23:42:54;;;;;;;16.48;10.73;;;;;;;;;;10648762;27;20632;-75
2023/01/19 23:47:55;;;;;;;18.02;11.75;;;;;;;;;;10666344;27;20042;-75
2023/01/19 23:52:55;;;;;;;19.30;11.70;;;;;;;;;;10661606;27;20079;-75
2023/01/19 23:57:56;;;;;;;17.48;10.93;;;;;;;;;;10632936;27;20043;-74
